sensor_id;sensor_type;location;lat;lon;timestamp;pressure;altitude;pressure_sealevel;temperature;humidity
16094;BME280;8151;47.824;12.092;2023-04-26T00:00:25;96219.50;;;7.27;81.03
16094;BME280;8151;47.824;12.092;2023-04-26T00:02:57;96222.41;;;7.24;80.93
16094;BME280;8151;47.824;12.092;2023-04-26T00:05:27;96224.06;;;7.25;81.29
16094;BME280;8151;47.824;12.092;2023-04-26T00:07:56;96225.59;;;7.27;81.15
16094;BME280;8151;47.824;12.092;2023-04-26T00:10:24;96225.72;;;7.26;81.02
16094;BME280;8151;47.824;12.092;2023-04-26T00:12:59;96212.72;;;7.24;81.14
16094;BME280;8151;47.824;12.092;2023-04-26T00:15:28;96227.81;;;7.22;81.25
16094;BME280;8151;47.824;12.092;2023-04-26T00:18:00;96218.28;;;7.21;81.57
16094;BME280;8151;47.824;12.092;2023-04-26T00:20:30;96220.06;;;7.21;81.53
16094;BME280;8151;47.824;12.092;2023-04-26T00:22:59;96219.19;;;7.30;81.64
16094;BME280;8151;47.824;12.092;2023-04-26T00:25:28;96221.19;;;7.36;81.39
16094;BME280;8151;47.824;12.092;2023-04-26T00:27:57;96212.00;;;7.40;81.62
16094;BME280;8151;47.824;12.092;2023-04-26T00:30:28;96217.47;;;7.39;81.39
16094;BME280;8151;47.824;12.092;2023-04-26T00:32:59;96200.66;;;7.40;81.39
16094;BME280;8151;47.824;12.092;2023-04-26T00:35:28;96204.78;;;7.42;81.28
16094;BME280;8151;47.824;12.092;2023-04-26T00:37:57;96202.00;;;7.44;81.30
16094;BME280;8151;47.824;12.092;2023-04-26T00:40:26;96203.53;;;7.46;81.64
16094;BME280;8151;47.824;12.092;2023-04-26T00:42:56;96199.44;;;7.52;81.23
16094;BME280;8151;47.824;12.092;2023-04-26T00:45:27;96204.56;;;7.54;81.36
16094;BME280;8151;47.824;12.092;2023-04-26T00:47:55;96201.78;;;7.55;81.42
16094;BME280;8151;47.824;12.092;2023-04-26T00:50:25;96201.47;;;7.58;81.55
16094;BME280;8151;47.824;12.092;2023-04-26T00:52:54;96199.81;;;7.57;81.50
16094;BME280;8151;47.824;12.092;2023-04-26T00:55:23;96198.84;;;7.58;81.42
16094;BME280;8151;47.824;12.092;2023-04-26T00:57:53;96206.56;;;7.60;81.44
16094;BME280;8151;47.824;12.092;2023-04-26T01:00:21;96205.75;;;7.59;81.49
16094;BME280;8151;47.824;12.092;2023-04-26T01:02:50;96207.56;;;7.59;81.57
16094;BME280;8151;47.824;12.092;2023-04-26T01:05:19;96211.84;;;7.60;81.70
16094;BME280;8151;47.824;12.092;2023-04-26T01:07:49;96211.69;;;7.61;81.74
16094;BME280;8151;47.824;12.092;2023-04-26T01:10:17;96214.31;;;7.61;81.86
16094;BME280;8151;47.824;12.092;2023-04-26T01:12:46;96207.09;;;7.63;81.85
16094;BME280;8151;47.824;12.092;2023-04-26T01:15:15;96210.25;;;7.67;81.90
16094;BME280;8151;47.824;12.092;2023-04-26T01:17:45;96203.69;;;7.71;82.04
16094;BME280;8151;47.824;12.092;2023-04-26T01:20:14;96200.75;;;7.74;82.25
16094;BME280;8151;47.824;12.092;2023-04-26T01:22:44;96199.47;;;7.78;82.05
16094;BME280;8151;47.824;12.092;2023-04-26T01:25:13;96197.03;;;7.85;81.80
16094;BME280;8151;47.824;12.092;2023-04-26T01:27:43;96213.50;;;7.87;82.02
16094;BME280;8151;47.824;12.092;2023-04-26T01:30:12;96213.69;;;7.85;82.18
16094;BME280;8151;47.824;12.092;2023-04-26T01:32:40;96211.19;;;7.84;81.96
16094;BME280;8151;47.824;12.092;2023-04-26T01:35:08;96214.75;;;7.75;82.19
16094;BME280;8151;47.824;12.092;2023-04-26T01:37:37;96215.84;;;7.64;82.55
16094;BME280;8151;47.824;12.092;2023-04-26T01:40:08;96220.72;;;7.59;82.76
16094;BME280;8151;47.824;12.092;2023-04-26T01:42:47;96216.44;;;7.58;82.66
16094;BME280;8151;47.824;12.092;2023-04-26T01:45:15;96232.47;;;7.64;82.89
16094;BME280;8151;47.824;12.092;2023-04-26T01:47:44;96230.66;;;7.65;82.53
16094;BME280;8151;47.824;12.092;2023-04-26T01:50:13;96231.25;;;7.59;82.91
16094;BME280;8151;47.824;12.092;2023-04-26T01:52:41;96231.94;;;7.61;82.75
16094;BME280;8151;47.824;12.092;2023-04-26T01:55:11;96229.00;;;7.64;82.76
16094;BME280;8151;47.824;12.092;2023-04-26T01:57:39;96228.53;;;7.68;82.72
16094;BME280;8151;47.824;12.092;2023-04-26T02:00:09;96232.00;;;7.69;82.69
16094;BME280;8151;47.824;12.092;2023-04-26T02:02:37;96239.06;;;7.68;82.59
16094;BME280;8151;47.824;12.092;2023-04-26T02:05:09;96230.97;;;7.62;82.71
16094;BME280;8151;47.824;12.092;2023-04-26T02:07:38;96240.34;;;7.64;82.81
16094;BME280;8151;47.824;12.092;2023-04-26T02:10:07;96238.25;;;7.68;82.84
16094;BME280;8151;47.824;12.092;2023-04-26T02:12:38;96251.50;;;7.58;82.71
16094;BME280;8151;47.824;12.092;2023-04-26T02:15:12;96244.44;;;7.41;82.96
16094;BME280;8151;47.824;12.092;2023-04-26T02:17:51;96246.25;;;7.22;83.24
16094;BME280;8151;47.824;12.092;2023-04-26T02:20:21;96252.66;;;7.20;83.37
16094;BME280;8151;47.824;12.092;2023-04-26T02:23:01;96248.19;;;7.20;83.42
16094;BME280;8151;47.824;12.092;2023-04-26T02:25:30;96249.34;;;7.18;83.09
16094;BME280;8151;47.824;12.092;2023-04-26T02:28:02;96237.47;;;7.14;83.45
16094;BME280;8151;47.824;12.092;2023-04-26T02:30:30;96237.53;;;7.04;83.52
16094;BME280;8151;47.824;12.092;2023-04-26T02:32:59;96239.09;;;6.97;83.45
16094;BME280;8151;47.824;12.092;2023-04-26T02:35:31;96237.66;;;6.84;83.34
16094;BME280;8151;47.824;12.092;2023-04-26T02:37:59;96234.03;;;6.85;83.37
16094;BME280;8151;47.824;12.092;2023-04-26T02:40:29;96231.50;;;6.94;83.40
16094;BME280;8151;47.824;12.092;2023-04-26T02:43:02;96237.59;;;6.94;83.04
16094;BME280;8151;47.824;12.092;2023-04-26T02:45:31;96240.66;;;6.89;83.25
16094;BME280;8151;47.824;12.092;2023-04-26T02:48:01;96235.72;;;6.86;83.21
16094;BME280;8151;47.824;12.092;2023-04-26T02:50:30;96236.00;;;6.83;83.10
16094;BME280;8151;47.824;12.092;2023-04-26T02:53:07;96239.91;;;6.79;83.54
16094;BME280;8151;47.824;12.092;2023-04-26T02:55:35;96232.47;;;6.75;83.19
16094;BME280;8151;47.824;12.092;2023-04-26T02:58:05;96235.78;;;6.77;83.73
16094;BME280;8151;47.824;12.092;2023-04-26T03:00:33;96240.84;;;6.78;83.29
16094;BME280;8151;47.824;12.092;2023-04-26T03:03:02;96229.84;;;6.75;83.59
16094;BME280;8151;47.824;12.092;2023-04-26T03:05:31;96230.19;;;6.80;83.12
16094;BME280;8151;47.824;12.092;2023-04-26T03:08:00;96232.41;;;6.84;83.31
16094;BME280;8151;47.824;12.092;2023-04-26T03:10:30;96231.56;;;6.84;83.21
16094;BME280;8151;47.824;12.092;2023-04-26T03:12:58;96235.03;;;6.84;83.08
16094;BME280;8151;47.824;12.092;2023-04-26T03:15:32;96237.66;;;6.84;82.88
16094;BME280;8151;47.824;12.092;2023-04-26T03:18:01;96239.31;;;6.85;83.04
16094;BME280;8151;47.824;12.092;2023-04-26T03:20:30;96233.75;;;6.88;82.84
16094;BME280;8151;47.824;12.092;2023-04-26T03:22:58;96239.31;;;6.85;83.05
16094;BME280;8151;47.824;12.092;2023-04-26T03:25:28;96231.56;;;6.84;83.10
16094;BME280;8151;47.824;12.092;2023-04-26T03:27:57;96227.56;;;6.80;83.16
16094;BME280;8151;47.824;12.092;2023-04-26T03:30:25;96231.69;;;6.82;83.23
16094;BME280;8151;47.824;12.092;2023-04-26T03:32:55;96242.38;;;6.81;82.83
16094;BME280;8151;47.824;12.092;2023-04-26T03:35:24;96250.41;;;6.79;82.94
16094;BME280;8151;47.824;12.092;2023-04-26T03:37:52;96254.41;;;6.83;83.03
16094;BME280;8151;47.824;12.092;2023-04-26T03:40:27;96246.66;;;6.82;82.94
16094;BME280;8151;47.824;12.092;2023-04-26T03:42:56;96249.28;;;6.82;83.09
16094;BME280;8151;47.824;12.092;2023-04-26T03:45:24;96255.38;;;6.82;82.93
16094;BME280;8151;47.824;12.092;2023-04-26T03:47:54;96252.72;;;6.82;82.93
16094;BME280;8151;47.824;12.092;2023-04-26T03:50:23;96253.59;;;6.83;83.05
16094;BME280;8151;47.824;12.092;2023-04-26T03:52:51;96263.25;;;6.82;82.96
16094;BME280;8151;47.824;12.092;2023-04-26T03:55:20;96258.84;;;6.83;83.08
16094;BME280;8151;47.824;12.092;2023-04-26T03:57:48;96254.25;;;6.85;82.89
16094;BME280;8151;47.824;12.092;2023-04-26T04:00:16;96259.38;;;6.86;82.61
16094;BME280;8151;47.824;12.092;2023-04-26T04:02:45;96264.31;;;6.89;82.98
16094;BME280;8151;47.824;12.092;2023-04-26T04:05:15;96252.00;;;6.90;82.73
16094;BME280;8151;47.824;12.092;2023-04-26T04:07:44;96261.41;;;6.93;82.56
16094;BME280;8151;47.824;12.092;2023-04-26T04:10:22;96263.50;;;6.89;82.57
16094;BME280;8151;47.824;12.092;2023-04-26T04:12:57;96263.97;;;6.84;82.77
16094;BME280;8151;47.824;12.092;2023-04-26T04:15:26;96265.59;;;6.85;82.78
16094;BME280;8151;47.824;12.092;2023-04-26T04:17:54;96268.09;;;6.87;82.91
16094;BME280;8151;47.824;12.092;2023-04-26T04:20:24;96260.34;;;6.85;82.71
16094;BME280;8151;47.824;12.092;2023-04-26T04:22:52;96268.22;;;6.85;82.95
16094;BME280;8151;47.824;12.092;2023-04-26T04:25:21;96269.22;;;6.84;83.15
16094;BME280;8151;47.824;12.092;2023-04-26T04:27:50;96269.44;;;6.91;82.76
16094;BME280;8151;47.824;12.092;2023-04-26T04:30:19;96272.31;;;6.98;82.80
16094;BME280;8151;47.824;12.092;2023-04-26T04:32:47;96272.31;;;6.98;82.87
16094;BME280;8151;47.824;12.092;2023-04-26T04:35:16;96276.47;;;7.00;82.93
16094;BME280;8151;47.824;12.092;2023-04-26T04:37:46;96278.09;;;7.01;82.96
16094;BME280;8151;47.824;12.092;2023-04-26T04:40:19;96277.00;;;7.04;82.71
16094;BME280;8151;47.824;12.092;2023-04-26T04:42:47;96281.25;;;7.05;82.45
16094;BME280;8151;47.824;12.092;2023-04-26T04:45:16;96285.25;;;7.09;82.61
16094;BME280;8151;47.824;12.092;2023-04-26T04:47:45;96288.72;;;7.09;82.64
16094;BME280;8151;47.824;12.092;2023-04-26T04:50:14;96284.56;;;7.07;82.75
16094;BME280;8151;47.824;12.092;2023-04-26T04:52:42;96289.84;;;7.07;82.93
16094;BME280;8151;47.824;12.092;2023-04-26T04:55:12;96292.19;;;7.10;82.89
16094;BME280;8151;47.824;12.092;2023-04-26T04:57:41;96285.63;;;7.14;82.59
16094;BME280;8151;47.824;12.092;2023-04-26T05:00:10;96288.94;;;7.16;82.55
16094;BME280;8151;47.824;12.092;2023-04-26T05:02:40;96292.66;;;7.23;82.76
16094;BME280;8151;47.824;12.092;2023-04-26T05:05:09;96292.88;;;7.30;82.37
16094;BME280;8151;47.824;12.092;2023-04-26T05:07:38;96298.13;;;7.30;82.39
16094;BME280;8151;47.824;12.092;2023-04-26T05:10:07;96294.97;;;7.26;82.62
16094;BME280;8151;47.824;12.092;2023-04-26T05:12:47;96304.88;;;7.33;82.39
16094;BME280;8151;47.824;12.092;2023-04-26T05:15:15;96300.31;;;7.35;82.20
16094;BME280;8151;47.824;12.092;2023-04-26T05:17:44;96301.00;;;7.37;82.15
16094;BME280;8151;47.824;12.092;2023-04-26T05:20:12;96311.91;;;7.42;82.05
16094;BME280;8151;47.824;12.092;2023-04-26T05:22:41;96315.72;;;7.47;81.89
16094;BME280;8151;47.824;12.092;2023-04-26T05:25:09;96321.53;;;7.51;81.96
16094;BME280;8151;47.824;12.092;2023-04-26T05:27:39;96320.41;;;7.54;81.98
16094;BME280;8151;47.824;12.092;2023-04-26T05:30:10;96328.97;;;7.56;81.90
16094;BME280;8151;47.824;12.092;2023-04-26T05:32:39;96328.28;;;7.54;81.75
16094;BME280;8151;47.824;12.092;2023-04-26T05:35:08;96332.59;;;7.55;81.92
16094;BME280;8151;47.824;12.092;2023-04-26T05:37:37;96336.06;;;7.55;81.92
16094;BME280;8151;47.824;12.092;2023-04-26T05:40:07;96332.88;;;7.52;82.04
16094;BME280;8151;47.824;12.092;2023-04-26T05:42:38;96331.06;;;7.52;82.06
16094;BME280;8151;47.824;12.092;2023-04-26T05:45:09;96327.00;;;7.58;82.04
16094;BME280;8151;47.824;12.092;2023-04-26T05:47:38;96334.34;;;7.64;81.82
16094;BME280;8151;47.824;12.092;2023-04-26T05:50:07;96334.69;;;7.69;81.66
16094;BME280;8151;47.824;12.092;2023-04-26T05:52:36;96339.28;;;7.67;81.61
16094;BME280;8151;47.824;12.092;2023-04-26T05:55:05;96341.09;;;7.66;81.47
16094;BME280;8151;47.824;12.092;2023-04-26T05:57:34;96348.59;;;7.61;81.60
16094;BME280;8151;47.824;12.092;2023-04-26T06:00:05;96350.72;;;7.58;81.46
16094;BME280;8151;47.824;12.092;2023-04-26T06:02:36;96348.41;;;7.55;81.43
16094;BME280;8151;47.824;12.092;2023-04-26T06:05:06;96352.66;;;7.56;81.56
16094;BME280;8151;47.824;12.092;2023-04-26T06:07:34;96345.63;;;7.56;81.60
16094;BME280;8151;47.824;12.092;2023-04-26T06:10:06;96347.41;;;7.56;81.46
16094;BME280;8151;47.824;12.092;2023-04-26T06:12:34;96344.75;;;7.56;81.65
16094;BME280;8151;47.824;12.092;2023-04-26T06:15:05;96350.41;;;7.61;81.58
16094;BME280;8151;47.824;12.092;2023-04-26T06:17:33;96351.69;;;7.57;81.60
16094;BME280;8151;47.824;12.092;2023-04-26T06:20:04;96360.56;;;7.56;81.51
16094;BME280;8151;47.824;12.092;2023-04-26T06:22:33;96356.97;;;7.57;81.43
16094;BME280;8151;47.824;12.092;2023-04-26T06:25:01;96355.16;;;7.57;81.45
16094;BME280;8151;47.824;12.092;2023-04-26T06:27:31;96358.47;;;7.59;81.56
16094;BME280;8151;47.824;12.092;2023-04-26T06:30:00;96355.84;;;7.59;81.41
16094;BME280;8151;47.824;12.092;2023-04-26T06:32:28;96362.09;;;7.58;81.52
16094;BME280;8151;47.824;12.092;2023-04-26T06:34:58;96361.78;;;7.61;81.32
16094;BME280;8151;47.824;12.092;2023-04-26T06:37:28;96351.25;;;7.61;81.55
16094;BME280;8151;47.824;12.092;2023-04-26T06:39:56;96364.41;;;7.61;81.38
16094;BME280;8151;47.824;12.092;2023-04-26T06:42:25;96355.69;;;7.61;81.48
16094;BME280;8151;47.824;12.092;2023-04-26T06:44:54;96360.66;;;7.64;81.52
16094;BME280;8151;47.824;12.092;2023-04-26T06:47:22;96363.66;;;7.69;81.37
16094;BME280;8151;47.824;12.092;2023-04-26T06:49:51;96366.81;;;7.73;81.37
16094;BME280;8151;47.824;12.092;2023-04-26T06:52:19;96368.19;;;7.77;81.37
16094;BME280;8151;47.824;12.092;2023-04-26T06:54:49;96363.59;;;7.79;81.25
16094;BME280;8151;47.824;12.092;2023-04-26T06:57:23;96376.16;;;7.85;81.21
16094;BME280;8151;47.824;12.092;2023-04-26T06:59:52;96367.00;;;7.89;81.30
16094;BME280;8151;47.824;12.092;2023-04-26T07:02:20;96364.28;;;7.99;80.90
16094;BME280;8151;47.824;12.092;2023-04-26T07:04:50;96362.53;;;8.07;80.78
16094;BME280;8151;47.824;12.092;2023-04-26T07:07:19;96366.56;;;8.20;80.74
16094;BME280;8151;47.824;12.092;2023-04-26T07:09:49;96372.22;;;8.25;80.30
16094;BME280;8151;47.824;12.092;2023-04-26T07:12:17;96373.69;;;8.27;80.74
16094;BME280;8151;47.824;12.092;2023-04-26T07:14:46;96366.97;;;8.33;80.68
16094;BME280;8151;47.824;12.092;2023-04-26T07:17:15;96373.31;;;8.40;80.68
16094;BME280;8151;47.824;12.092;2023-04-26T07:19:43;96371.88;;;8.46;80.28
16094;BME280;8151;47.824;12.092;2023-04-26T07:22:12;96369.94;;;8.48;80.52
16094;BME280;8151;47.824;12.092;2023-04-26T07:24:40;96372.25;;;8.51;80.36
16094;BME280;8151;47.824;12.092;2023-04-26T07:27:10;96369.31;;;8.54;79.79
16094;BME280;8151;47.824;12.092;2023-04-26T07:29:38;96372.97;;;8.61;80.19
16094;BME280;8151;47.824;12.092;2023-04-26T07:32:07;96374.69;;;8.71;79.64
16094;BME280;8151;47.824;12.092;2023-04-26T07:34:36;96374.06;;;8.77;79.70
16094;BME280;8151;47.824;12.092;2023-04-26T07:37:04;96372.59;;;8.82;79.89
16094;BME280;8151;47.824;12.092;2023-04-26T07:39:34;96371.97;;;8.89;79.63
16094;BME280;8151;47.824;12.092;2023-04-26T07:42:02;96370.16;;;8.89;79.48
16094;BME280;8151;47.824;12.092;2023-04-26T07:44:32;96372.78;;;8.89;79.70
16094;BME280;8151;47.824;12.092;2023-04-26T07:47:01;96372.28;;;8.85;79.81
16094;BME280;8151;47.824;12.092;2023-04-26T07:49:29;96373.13;;;8.86;79.55
16094;BME280;8151;47.824;12.092;2023-04-26T07:51:57;96371.97;;;8.89;79.84
16094;BME280;8151;47.824;12.092;2023-04-26T07:54:28;96375.59;;;8.87;79.42
16094;BME280;8151;47.824;12.092;2023-04-26T07:56:56;96373.63;;;8.90;79.53
16094;BME280;8151;47.824;12.092;2023-04-26T07:59:25;96372.63;;;8.91;79.06
16094;BME280;8151;47.824;12.092;2023-04-26T08:01:55;96377.25;;;8.89;79.19
16094;BME280;8151;47.824;12.092;2023-04-26T08:04:30;96373.94;;;8.86;79.25
16094;BME280;8151;47.824;12.092;2023-04-26T08:06:59;96371.34;;;8.95;79.19
16094;BME280;8151;47.824;12.092;2023-04-26T08:09:28;96362.16;;;9.07;78.74
16094;BME280;8151;47.824;12.092;2023-04-26T08:11:58;96368.16;;;9.17;78.76
16094;BME280;8151;47.824;12.092;2023-04-26T08:14:26;96362.88;;;9.25;78.88
16094;BME280;8151;47.824;12.092;2023-04-26T08:16:58;96362.59;;;9.29;78.57
16094;BME280;8151;47.824;12.092;2023-04-26T08:19:26;96361.56;;;9.30;78.61
16094;BME280;8151;47.824;12.092;2023-04-26T08:21:57;96356.97;;;9.32;78.67
16094;BME280;8151;47.824;12.092;2023-04-26T08:24:28;96351.69;;;9.32;78.51
16094;BME280;8151;47.824;12.092;2023-04-26T08:26:57;96361.28;;;9.41;78.14
16094;BME280;8151;47.824;12.092;2023-04-26T08:29:26;96354.88;;;9.52;78.26
16094;BME280;8151;47.824;12.092;2023-04-26T08:31:55;96352.38;;;9.42;78.00
16094;BME280;8151;47.824;12.092;2023-04-26T08:34:25;96352.03;;;9.37;78.24
16094;BME280;8151;47.824;12.092;2023-04-26T08:36:54;96348.75;;;9.43;77.89
16094;BME280;8151;47.824;12.092;2023-04-26T08:39:23;96342.31;;;9.54;77.63
16094;BME280;8151;47.824;12.092;2023-04-26T08:41:53;96340.22;;;9.65;76.89
16094;BME280;8151;47.824;12.092;2023-04-26T08:44:23;96342.34;;;9.70;77.31
16094;BME280;8151;47.824;12.092;2023-04-26T08:46:58;96343.03;;;9.72;77.23
16094;BME280;8151;47.824;12.092;2023-04-26T08:49:37;96345.34;;;9.75;76.43
16094;BME280;8151;47.824;12.092;2023-04-26T08:52:10;96339.72;;;9.78;76.56
16094;BME280;8151;47.824;12.092;2023-04-26T08:54:41;96339.91;;;9.85;76.96
16094;BME280;8151;47.824;12.092;2023-04-26T08:57:10;96340.41;;;9.97;75.98
16094;BME280;8151;47.824;12.092;2023-04-26T08:59:41;96341.06;;;10.07;75.92
16094;BME280;8151;47.824;12.092;2023-04-26T09:02:13;96342.56;;;10.18;76.34
16094;BME280;8151;47.824;12.092;2023-04-26T09:04:46;96343.56;;;10.33;75.67
16094;BME280;8151;47.824;12.092;2023-04-26T09:07:19;96340.06;;;10.49;75.35
16094;BME280;8151;47.824;12.092;2023-04-26T09:09:49;96337.56;;;10.56;75.17
16094;BME280;8151;47.824;12.092;2023-04-26T09:12:18;96344.50;;;10.65;75.45
16094;BME280;8151;47.824;12.092;2023-04-26T09:14:47;96334.03;;;10.72;75.27
16094;BME280;8151;47.824;12.092;2023-04-26T09:17:26;96332.88;;;10.82;74.00
16094;BME280;8151;47.824;12.092;2023-04-26T09:19:57;96324.53;;;11.02;74.16
16094;BME280;8151;47.824;12.092;2023-04-26T09:22:34;96325.56;;;11.24;73.54
16094;BME280;8151;47.824;12.092;2023-04-26T09:25:03;96321.97;;;11.48;73.53
16094;BME280;8151;47.824;12.092;2023-04-26T09:27:34;96322.41;;;11.60;73.43
16094;BME280;8151;47.824;12.092;2023-04-26T09:30:08;96324.56;;;11.56;73.73
16094;BME280;8151;47.824;12.092;2023-04-26T09:32:44;96328.63;;;11.44;74.01
16094;BME280;8151;47.824;12.092;2023-04-26T09:35:20;96316.06;;;11.38;74.17
16094;BME280;8151;47.824;12.092;2023-04-26T09:37:54;96315.06;;;11.39;74.41
16094;BME280;8151;47.824;12.092;2023-04-26T09:40:28;96314.25;;;11.38;74.07
16094;BME280;8151;47.824;12.092;2023-04-26T09:43:02;96315.88;;;11.48;74.45
16094;BME280;8151;47.824;12.092;2023-04-26T09:45:32;96307.22;;;11.54;74.17
16094;BME280;8151;47.824;12.092;2023-04-26T09:48:14;96309.31;;;11.58;73.83
16094;BME280;8151;47.824;12.092;2023-04-26T09:50:45;96312.28;;;11.63;73.97
16094;BME280;8151;47.824;12.092;2023-04-26T09:53:31;96306.50;;;11.60;73.23
16094;BME280;8151;47.824;12.092;2023-04-26T09:56:09;96305.91;;;11.50;73.90
16094;BME280;8151;47.824;12.092;2023-04-26T09:58:39;96312.09;;;11.34;74.14
16094;BME280;8151;47.824;12.092;2023-04-26T10:01:07;96307.50;;;11.28;73.96
16094;BME280;8151;47.824;12.092;2023-04-26T10:03:38;96298.53;;;11.37;73.46
16094;BME280;8151;47.824;12.092;2023-04-26T10:06:10;96296.47;;;11.47;73.07
16094;BME280;8151;47.824;12.092;2023-04-26T10:08:39;96303.25;;;11.50;73.00
16094;BME280;8151;47.824;12.092;2023-04-26T10:11:08;96295.97;;;11.52;73.24
16094;BME280;8151;47.824;12.092;2023-04-26T10:13:43;96303.03;;;11.59;73.22
16094;BME280;8151;47.824;12.092;2023-04-26T10:16:11;96305.31;;;11.62;72.69
16094;BME280;8151;47.824;12.092;2023-04-26T10:18:40;96299.75;;;11.57;72.74
16094;BME280;8151;47.824;12.092;2023-04-26T10:21:12;96293.31;;;11.52;72.68
16094;BME280;8151;47.824;12.092;2023-04-26T10:23:48;96301.13;;;11.45;72.69
16094;BME280;8151;47.824;12.092;2023-04-26T10:26:51;96286.28;;;11.36;71.84
16094;BME280;8151;47.824;12.092;2023-04-26T10:29:21;96298.91;;;11.26;72.08
16094;BME280;8151;47.824;12.092;2023-04-26T10:32:07;96291.13;;;11.24;71.64
16094;BME280;8151;47.824;12.092;2023-04-26T10:34:38;96295.75;;;11.30;71.81
16094;BME280;8151;47.824;12.092;2023-04-26T10:37:12;96286.91;;;11.38;71.89
16094;BME280;8151;47.824;12.092;2023-04-26T10:39:43;96284.47;;;11.59;71.59
16094;BME280;8151;47.824;12.092;2023-04-26T10:42:21;96276.16;;;11.86;70.70
16094;BME280;8151;47.824;12.092;2023-04-26T10:44:52;96277.88;;;12.01;70.51
16094;BME280;8151;47.824;12.092;2023-04-26T10:47:27;96281.16;;;12.04;70.48
16094;BME280;8151;47.824;12.092;2023-04-26T10:50:08;96271.28;;;11.97;70.29
16094;BME280;8151;47.824;12.092;2023-04-26T10:53:04;96274.94;;;11.96;70.04
16094;BME280;8151;47.824;12.092;2023-04-26T10:55:40;96269.28;;;11.99;70.57
16094;BME280;8151;47.824;12.092;2023-04-26T10:58:27;96263.06;;;11.92;69.91
16094;BME280;8151;47.824;12.092;2023-04-26T11:01:05;96266.91;;;11.81;70.13
16094;BME280;8151;47.824;12.092;2023-04-26T11:03:34;96267.81;;;11.74;70.50
16094;BME280;8151;47.824;12.092;2023-04-26T11:06:05;96269.88;;;11.63;70.38
16094;BME280;8151;47.824;12.092;2023-04-26T11:08:37;96266.91;;;11.58;69.96
16094;BME280;8151;47.824;12.092;2023-04-26T11:11:07;96262.09;;;11.62;69.92
16094;BME280;8151;47.824;12.092;2023-04-26T11:13:38;96257.50;;;11.56;69.17
16094;BME280;8151;47.824;12.092;2023-04-26T11:16:08;96249.25;;;11.51;68.94
16094;BME280;8151;47.824;12.092;2023-04-26T11:18:38;96250.06;;;11.51;68.82
16094;BME280;8151;47.824;12.092;2023-04-26T11:21:08;96241.84;;;11.46;68.68
16094;BME280;8151;47.824;12.092;2023-04-26T11:23:39;96231.84;;;11.56;68.04
16094;BME280;8151;47.824;12.092;2023-04-26T11:26:08;96234.06;;;11.91;67.40
16094;BME280;8151;47.824;12.092;2023-04-26T11:28:37;96233.81;;;12.15;67.25
16094;BME280;8151;47.824;12.092;2023-04-26T11:31:06;96218.84;;;12.37;66.73
16094;BME280;8151;47.824;12.092;2023-04-26T11:33:40;96230.38;;;12.45;66.30
16094;BME280;8151;47.824;12.092;2023-04-26T11:36:10;96222.13;;;12.39;66.00
16094;BME280;8151;47.824;12.092;2023-04-26T11:38:40;96237.13;;;12.32;66.11
16094;BME280;8151;47.824;12.092;2023-04-26T11:41:09;96238.84;;;12.25;66.29
16094;BME280;8151;47.824;12.092;2023-04-26T11:43:38;96236.03;;;12.27;66.69
16094;BME280;8151;47.824;12.092;2023-04-26T11:46:07;96226.69;;;12.31;66.33
16094;BME280;8151;47.824;12.092;2023-04-26T11:48:37;96226.25;;;12.27;66.38
16094;BME280;8151;47.824;12.092;2023-04-26T11:51:07;96224.50;;;12.19;66.34
16094;BME280;8151;47.824;12.092;2023-04-26T11:53:37;96216.56;;;12.19;66.26
16094;BME280;8151;47.824;12.092;2023-04-26T11:56:14;96228.25;;;12.25;65.50
16094;BME280;8151;47.824;12.092;2023-04-26T11:58:45;96219.38;;;12.48;65.29
16094;BME280;8151;47.824;12.092;2023-04-26T12:01:19;96222.03;;;12.63;65.33
16094;BME280;8151;47.824;12.092;2023-04-26T12:03:50;96217.81;;;12.68;65.26
16094;BME280;8151;47.824;12.092;2023-04-26T12:06:27;96217.25;;;12.73;64.70
16094;BME280;8151;47.824;12.092;2023-04-26T12:08:56;96227.22;;;12.86;64.83
16094;BME280;8151;47.824;12.092;2023-04-26T12:11:26;96228.09;;;12.93;64.59
16094;BME280;8151;47.824;12.092;2023-04-26T12:13:57;96229.19;;;12.98;64.44
16094;BME280;8151;47.824;12.092;2023-04-26T12:16:26;96231.13;;;13.05;64.38
16094;BME280;8151;47.824;12.092;2023-04-26T12:18:55;96230.00;;;13.14;64.08
16094;BME280;8151;47.824;12.092;2023-04-26T12:21:24;96228.28;;;13.28;63.59
16094;BME280;8151;47.824;12.092;2023-04-26T12:23:56;96226.97;;;13.32;63.77
16094;BME280;8151;47.824;12.092;2023-04-26T12:26:44;96223.53;;;13.38;63.03
16094;BME280;8151;47.824;12.092;2023-04-26T12:29:13;96230.50;;;13.39;63.45
16094;BME280;8151;47.824;12.092;2023-04-26T12:31:55;96230.63;;;13.31;63.27
16094;BME280;8151;47.824;12.092;2023-04-26T12:34:24;96222.97;;;13.28;63.01
16094;BME280;8151;47.824;12.092;2023-04-26T12:36:52;96217.19;;;13.39;62.83
16094;BME280;8151;47.824;12.092;2023-04-26T12:39:21;96215.13;;;13.56;62.32
16094;BME280;8151;47.824;12.092;2023-04-26T12:41:51;96214.03;;;13.72;61.85
16094;BME280;8151;47.824;12.092;2023-04-26T12:44:21;96219.59;;;13.77;61.76
16094;BME280;8151;47.824;12.092;2023-04-26T12:46:49;96219.97;;;13.74;61.63
16094;BME280;8151;47.824;12.092;2023-04-26T12:49:18;96212.09;;;13.59;61.84
16094;BME280;8151;47.824;12.092;2023-04-26T12:51:47;96210.88;;;13.62;61.26
16094;BME280;8151;47.824;12.092;2023-04-26T12:54:15;96216.66;;;13.65;61.17
16094;BME280;8151;47.824;12.092;2023-04-26T12:56:44;96219.53;;;13.70;60.87
16094;BME280;8151;47.824;12.092;2023-04-26T12:59:13;96222.19;;;13.70;60.72
16094;BME280;8151;47.824;12.092;2023-04-26T13:01:42;96215.38;;;13.61;61.06
16094;BME280;8151;47.824;12.092;2023-04-26T13:04:10;96212.50;;;13.63;60.73
16094;BME280;8151;47.824;12.092;2023-04-26T13:06:39;96211.06;;;13.60;60.54
16094;BME280;8151;47.824;12.092;2023-04-26T13:09:09;96215.00;;;13.64;60.26
16094;BME280;8151;47.824;12.092;2023-04-26T13:11:39;96215.25;;;13.69;60.34
16094;BME280;8151;47.824;12.092;2023-04-26T13:14:10;96207.50;;;13.74;60.25
16094;BME280;8151;47.824;12.092;2023-04-26T13:16:40;96210.81;;;13.76;60.31
16094;BME280;8151;47.824;12.092;2023-04-26T13:19:10;96205.97;;;13.87;60.37
16094;BME280;8151;47.824;12.092;2023-04-26T13:21:39;96201.81;;;14.06;60.12
16094;BME280;8151;47.824;12.092;2023-04-26T13:24:10;96199.09;;;14.27;59.69